Aviation Digital Data Service (ADDS)

Output produced by TAFs form (1728 UTC 23 July 2018)
found at http://aviationweather.gov/adds/tafs/
 
METAR text: KPWT 231656Z AUTO 00000KT 10SM CLR 26/12 A3013 RMK AO2 SLP213 T02610117
Conditions at: KPWT (BREMERTON NTNL , WA, US) observed 1656 UTC 23 July 2018
Temperature: 26.1°C (79°F)
Dewpoint: 11.7°C (53°F) [RH = 41%]
Pressure (altimeter): 30.13 inches Hg (1020.4 mb)
[Sea-level pressure: 1021.3 mb]
Winds: calm
Visibility: 10 or more miles (16+ km)
Ceiling: at least 12,000 feet AGL
Clouds: sky clear below 12,000 feet AGL
Weather: automated observation with no human augmentation;
there may or may not be significant weather present at this time

Forecast for: KPWT (BREMERTON NTNL , WA, US)
Text: KPWT 231721Z 2318/2418 04006KT P6SM SKC
Forecast period: 1800 UTC 23 July 2018 to 0400 UTC 24 July 2018
Forecast type: FROM: standard forecast or significant change
Winds: from the NE (40 degrees) at 7 MPH (6 knots; 3.1 m/s)
Visibility: 6 or more miles (10+ km)
Clouds: clear skies
Weather: no significant weather forecast for this period
Text: FM240400 VRB03KT P6SM SKC
Forecast period: 0400 to 1800 UTC 24 July 2018
Forecast type: FROM: standard forecast or significant change
Winds: variable direction winds at 3 MPH (3 knots; 1.6 m/s)
Visibility: 6 or more miles (10+ km)
Clouds: clear skies
Weather: no significant weather forecast for this period